Terminal Aerodrome Forecast
Issued by NWS Brownsville, TX

Home | Current Version | Previous Version | Text Only | Print | Product List | Glossary On
Versions: 1 2 3 4 5 6 7 8 9 10 11 12 13 14 15 16 17 18 19 20
000
FTUS44 KBRO 280353 AAA
TAFMFE
TAF AMD
KMFE 280353Z 2804/2824 12010KT P6SM BKN025
      TEMPO 2804/2807 SCT025
     FM280700 14010G15KT P6SM BKN015
     FM281500 15014G23KT P6SM BKN025 BKN035
     FM281800 15022G30KT P6SM SCT040 BKN250=

USA.gov is the U.S. government's official web portal to all federal, state and local government web resources and services.